sensor_id;sensor_type;location;lat;lon;timestamp;P1;durP1;ratioP1;P2;durP2;ratioP2
49177;SDS011;35016;55.674;37.468;2023-05-07T00:00:02;7.72;;;2.90;;
49177;SDS011;35016;55.674;37.468;2023-05-07T00:02:35;7.93;;;2.58;;
49177;SDS011;35016;55.674;37.468;2023-05-07T00:05:04;6.63;;;2.75;;
49177;SDS011;35016;55.674;37.468;2023-05-07T00:07:32;8.88;;;3.50;;
49177;SDS011;35016;55.674;37.468;2023-05-07T00:10:00;9.27;;;2.83;;
49177;SDS011;35016;55.674;37.468;2023-05-07T00:12:30;7.30;;;2.83;;
49177;SDS011;35016;55.674;37.468;2023-05-07T00:15:01;7.82;;;2.63;;
49177;SDS011;35016;55.674;37.468;2023-05-07T00:17:33;8.80;;;2.83;;
49177;SDS011;35016;55.674;37.468;2023-05-07T00:20:01;11.23;;;3.58;;
49177;SDS011;35016;55.674;37.468;2023-05-07T00:22:32;8.18;;;2.92;;
49177;SDS011;35016;55.674;37.468;2023-05-07T00:25:00;9.07;;;3.28;;
49177;SDS011;35016;55.674;37.468;2023-05-07T00:27:32;10.40;;;3.22;;
49177;SDS011;35016;55.674;37.468;2023-05-07T00:29:59;11.88;;;3.28;;
49177;SDS011;35016;55.674;37.468;2023-05-07T00:35:00;8.48;;;2.85;;
49177;SDS011;35016;55.674;37.468;2023-05-07T00:37:29;11.02;;;2.72;;
49177;SDS011;35016;55.674;37.468;2023-05-07T00:39:57;7.10;;;2.63;;
49177;SDS011;35016;55.674;37.468;2023-05-07T00:42:24;9.05;;;3.03;;
49177;SDS011;35016;55.674;37.468;2023-05-07T00:44:51;6.47;;;2.35;;
49177;SDS011;35016;55.674;37.468;2023-05-07T00:47:18;9.32;;;2.47;;
49177;SDS011;35016;55.674;37.468;2023-05-07T00:49:45;8.73;;;2.95;;
49177;SDS011;35016;55.674;37.468;2023-05-07T00:52:13;8.18;;;3.00;;
49177;SDS011;35016;55.674;37.468;2023-05-07T00:54:42;7.38;;;2.55;;
49177;SDS011;35016;55.674;37.468;2023-05-07T00:57:10;13.15;;;3.33;;
49177;SDS011;35016;55.674;37.468;2023-05-07T00:59:41;11.98;;;3.55;;
49177;SDS011;35016;55.674;37.468;2023-05-07T01:02:08;9.25;;;3.30;;
49177;SDS011;35016;55.674;37.468;2023-05-07T01:04:36;8.52;;;3.65;;
49177;SDS011;35016;55.674;37.468;2023-05-07T01:07:04;8.00;;;2.90;;
49177;SDS011;35016;55.674;37.468;2023-05-07T01:09:32;8.90;;;3.25;;
49177;SDS011;35016;55.674;37.468;2023-05-07T01:12:02;11.32;;;4.05;;
49177;SDS011;35016;55.674;37.468;2023-05-07T01:14:30;10.07;;;3.58;;
49177;SDS011;35016;55.674;37.468;2023-05-07T01:16:59;8.38;;;2.90;;
49177;SDS011;35016;55.674;37.468;2023-05-07T01:19:28;9.65;;;3.50;;
49177;SDS011;35016;55.674;37.468;2023-05-07T01:22:01;8.40;;;3.78;;
49177;SDS011;35016;55.674;37.468;2023-05-07T01:24:37;8.23;;;3.35;;
49177;SDS011;35016;55.674;37.468;2023-05-07T01:27:06;11.43;;;3.63;;
49177;SDS011;35016;55.674;37.468;2023-05-07T01:29:34;10.63;;;3.78;;
49177;SDS011;35016;55.674;37.468;2023-05-07T01:32:02;8.38;;;2.95;;
49177;SDS011;35016;55.674;37.468;2023-05-07T01:34:30;7.45;;;2.65;;
49177;SDS011;35016;55.674;37.468;2023-05-07T01:36:59;8.88;;;2.85;;
49177;SDS011;35016;55.674;37.468;2023-05-07T01:39:27;9.23;;;2.92;;
49177;SDS011;35016;55.674;37.468;2023-05-07T01:41:56;8.75;;;2.78;;
49177;SDS011;35016;55.674;37.468;2023-05-07T01:44:24;12.10;;;3.15;;
49177;SDS011;35016;55.674;37.468;2023-05-07T01:46:51;8.90;;;3.22;;
49177;SDS011;35016;55.674;37.468;2023-05-07T01:49:20;8.10;;;2.75;;
49177;SDS011;35016;55.674;37.468;2023-05-07T01:51:47;5.53;;;2.13;;
49177;SDS011;35016;55.674;37.468;2023-05-07T01:54:15;7.22;;;2.20;;
49177;SDS011;35016;55.674;37.468;2023-05-07T01:56:43;5.97;;;2.13;;
49177;SDS011;35016;55.674;37.468;2023-05-07T01:59:11;7.90;;;2.45;;
49177;SDS011;35016;55.674;37.468;2023-05-07T02:01:40;8.80;;;2.78;;
49177;SDS011;35016;55.674;37.468;2023-05-07T02:04:09;6.68;;;2.15;;
49177;SDS011;35016;55.674;37.468;2023-05-07T02:06:36;7.82;;;2.65;;
49177;SDS011;35016;55.674;37.468;2023-05-07T02:09:05;5.53;;;2.35;;
49177;SDS011;35016;55.674;37.468;2023-05-07T02:11:33;6.53;;;2.30;;
49177;SDS011;35016;55.674;37.468;2023-05-07T02:14:00;9.07;;;2.92;;
49177;SDS011;35016;55.674;37.468;2023-05-07T02:16:27;7.00;;;2.30;;
49177;SDS011;35016;55.674;37.468;2023-05-07T02:18:55;10.25;;;2.80;;
49177;SDS011;35016;55.674;37.468;2023-05-07T02:21:23;7.63;;;2.17;;
49177;SDS011;35016;55.674;37.468;2023-05-07T02:23:51;7.65;;;2.70;;
49177;SDS011;35016;55.674;37.468;2023-05-07T02:26:18;5.75;;;2.15;;
49177;SDS011;35016;55.674;37.468;2023-05-07T02:28:46;6.18;;;1.95;;
49177;SDS011;35016;55.674;37.468;2023-05-07T02:31:14;7.95;;;2.60;;
49177;SDS011;35016;55.674;37.468;2023-05-07T02:33:41;6.55;;;1.90;;
49177;SDS011;35016;55.674;37.468;2023-05-07T02:36:09;10.68;;;2.65;;
49177;SDS011;35016;55.674;37.468;2023-05-07T02:38:46;6.32;;;2.13;;
49177;SDS011;35016;55.674;37.468;2023-05-07T02:41:13;9.07;;;2.95;;
49177;SDS011;35016;55.674;37.468;2023-05-07T02:43:41;6.68;;;2.10;;
49177;SDS011;35016;55.674;37.468;2023-05-07T02:46:09;8.30;;;2.65;;
49177;SDS011;35016;55.674;37.468;2023-05-07T02:48:40;6.32;;;2.08;;
49177;SDS011;35016;55.674;37.468;2023-05-07T02:51:08;6.78;;;2.50;;
49177;SDS011;35016;55.674;37.468;2023-05-07T02:53:37;6.50;;;1.83;;
49177;SDS011;35016;55.674;37.468;2023-05-07T02:56:04;8.07;;;2.30;;
49177;SDS011;35016;55.674;37.468;2023-05-07T02:58:33;8.50;;;2.63;;
49177;SDS011;35016;55.674;37.468;2023-05-07T03:01:01;7.20;;;2.47;;
49177;SDS011;35016;55.674;37.468;2023-05-07T03:03:51;5.90;;;2.03;;
49177;SDS011;35016;55.674;37.468;2023-05-07T03:06:19;6.72;;;1.95;;
49177;SDS011;35016;55.674;37.468;2023-05-07T03:08:46;6.90;;;2.15;;
49177;SDS011;35016;55.674;37.468;2023-05-07T03:11:13;7.38;;;2.67;;
49177;SDS011;35016;55.674;37.468;2023-05-07T03:13:41;6.80;;;2.17;;
49177;SDS011;35016;55.674;37.468;2023-05-07T03:16:08;7.60;;;2.70;;
49177;SDS011;35016;55.674;37.468;2023-05-07T03:18:35;7.30;;;2.42;;
49177;SDS011;35016;55.674;37.468;2023-05-07T03:21:03;8.80;;;2.90;;
49177;SDS011;35016;55.674;37.468;2023-05-07T03:23:30;7.13;;;2.47;;
49177;SDS011;35016;55.674;37.468;2023-05-07T03:25:57;8.43;;;2.88;;
49177;SDS011;35016;55.674;37.468;2023-05-07T03:28:25;9.18;;;2.60;;
49177;SDS011;35016;55.674;37.468;2023-05-07T03:30:58;6.70;;;2.22;;
49177;SDS011;35016;55.674;37.468;2023-05-07T03:33:25;5.78;;;1.90;;
49177;SDS011;35016;55.674;37.468;2023-05-07T03:35:54;8.02;;;2.53;;
49177;SDS011;35016;55.674;37.468;2023-05-07T03:38:24;6.70;;;2.58;;
49177;SDS011;35016;55.674;37.468;2023-05-07T03:40:51;7.15;;;2.33;;
49177;SDS011;35016;55.674;37.468;2023-05-07T03:43:18;7.63;;;2.53;;
49177;SDS011;35016;55.674;37.468;2023-05-07T03:45:51;7.78;;;2.80;;
49177;SDS011;35016;55.674;37.468;2023-05-07T03:48:22;8.00;;;2.72;;
49177;SDS011;35016;55.674;37.468;2023-05-07T03:50:52;7.55;;;2.30;;
49177;SDS011;35016;55.674;37.468;2023-05-07T03:53:20;6.95;;;2.47;;
49177;SDS011;35016;55.674;37.468;2023-05-07T03:55:47;8.48;;;3.10;;
49177;SDS011;35016;55.674;37.468;2023-05-07T03:58:14;8.48;;;3.13;;
49177;SDS011;35016;55.674;37.468;2023-05-07T04:00:42;8.10;;;2.92;;
49177;SDS011;35016;55.674;37.468;2023-05-07T04:03:20;8.18;;;2.78;;
49177;SDS011;35016;55.674;37.468;2023-05-07T04:05:48;9.88;;;2.90;;
49177;SDS011;35016;55.674;37.468;2023-05-07T04:08:15;8.23;;;2.83;;
49177;SDS011;35016;55.674;37.468;2023-05-07T04:10:47;7.95;;;3.28;;
49177;SDS011;35016;55.674;37.468;2023-05-07T04:13:14;7.82;;;2.50;;
49177;SDS011;35016;55.674;37.468;2023-05-07T04:15:41;8.23;;;2.47;;
49177;SDS011;35016;55.674;37.468;2023-05-07T04:18:11;11.32;;;2.63;;
49177;SDS011;35016;55.674;37.468;2023-05-07T04:20:42;8.75;;;3.03;;
49177;SDS011;35016;55.674;37.468;2023-05-07T04:23:12;9.02;;;2.95;;
49177;SDS011;35016;55.674;37.468;2023-05-07T04:25:40;7.53;;;2.78;;
49177;SDS011;35016;55.674;37.468;2023-05-07T04:28:18;9.23;;;2.78;;
49177;SDS011;35016;55.674;37.468;2023-05-07T04:30:46;6.63;;;1.92;;
49177;SDS011;35016;55.674;37.468;2023-05-07T04:33:14;5.47;;;2.20;;
49177;SDS011;35016;55.674;37.468;2023-05-07T04:35:44;6.03;;;1.90;;
49177;SDS011;35016;55.674;37.468;2023-05-07T04:38:12;7.40;;;2.75;;
49177;SDS011;35016;55.674;37.468;2023-05-07T04:40:39;7.22;;;2.65;;
49177;SDS011;35016;55.674;37.468;2023-05-07T04:43:10;5.95;;;2.33;;
49177;SDS011;35016;55.674;37.468;2023-05-07T04:48:11;7.10;;;1.80;;
49177;SDS011;35016;55.674;37.468;2023-05-07T04:50:39;8.38;;;2.47;;
49177;SDS011;35016;55.674;37.468;2023-05-07T04:53:07;7.55;;;1.95;;
49177;SDS011;35016;55.674;37.468;2023-05-07T04:55:35;5.82;;;2.13;;
49177;SDS011;35016;55.674;37.468;2023-05-07T04:58:03;6.22;;;2.33;;
49177;SDS011;35016;55.674;37.468;2023-05-07T05:00:33;7.03;;;2.38;;
49177;SDS011;35016;55.674;37.468;2023-05-07T05:03:03;6.60;;;2.20;;
49177;SDS011;35016;55.674;37.468;2023-05-07T05:05:31;6.78;;;2.08;;
49177;SDS011;35016;55.674;37.468;2023-05-07T05:07:58;6.78;;;2.08;;
49177;SDS011;35016;55.674;37.468;2023-05-07T05:10:25;6.75;;;2.58;;
49177;SDS011;35016;55.674;37.468;2023-05-07T05:12:53;6.38;;;2.05;;
49177;SDS011;35016;55.674;37.468;2023-05-07T05:15:21;5.03;;;1.70;;
49177;SDS011;35016;55.674;37.468;2023-05-07T05:17:49;4.63;;;1.33;;
49177;SDS011;35016;55.674;37.468;2023-05-07T05:20:17;6.80;;;1.98;;
49177;SDS011;35016;55.674;37.468;2023-05-07T05:22:47;4.70;;;1.38;;
49177;SDS011;35016;55.674;37.468;2023-05-07T05:25:14;5.00;;;1.50;;
49177;SDS011;35016;55.674;37.468;2023-05-07T05:27:41;3.65;;;1.13;;
49177;SDS011;35016;55.674;37.468;2023-05-07T05:30:09;4.25;;;1.33;;
49177;SDS011;35016;55.674;37.468;2023-05-07T05:32:38;5.28;;;1.75;;
49177;SDS011;35016;55.674;37.468;2023-05-07T05:35:06;5.45;;;1.83;;
49177;SDS011;35016;55.674;37.468;2023-05-07T05:37:34;4.70;;;1.55;;
49177;SDS011;35016;55.674;37.468;2023-05-07T05:40:04;4.57;;;1.45;;
49177;SDS011;35016;55.674;37.468;2023-05-07T05:42:32;3.95;;;1.30;;
49177;SDS011;35016;55.674;37.468;2023-05-07T05:45:00;1.85;;;0.82;;
49177;SDS011;35016;55.674;37.468;2023-05-07T05:47:31;4.13;;;1.42;;
49177;SDS011;35016;55.674;37.468;2023-05-07T05:49:59;5.60;;;1.73;;
49177;SDS011;35016;55.674;37.468;2023-05-07T05:52:31;4.32;;;1.20;;
49177;SDS011;35016;55.674;37.468;2023-05-07T05:54:58;4.15;;;1.25;;
49177;SDS011;35016;55.674;37.468;2023-05-07T05:57:26;3.80;;;1.23;;
49177;SDS011;35016;55.674;37.468;2023-05-07T05:59:55;5.97;;;1.75;;
49177;SDS011;35016;55.674;37.468;2023-05-07T06:02:23;3.65;;;1.30;;
49177;SDS011;35016;55.674;37.468;2023-05-07T06:04:51;7.75;;;2.20;;
49177;SDS011;35016;55.674;37.468;2023-05-07T06:07:21;5.65;;;1.58;;
49177;SDS011;35016;55.674;37.468;2023-05-07T06:09:48;4.00;;;1.23;;
49177;SDS011;35016;55.674;37.468;2023-05-07T06:12:16;7.90;;;1.70;;
49177;SDS011;35016;55.674;37.468;2023-05-07T06:14:43;4.55;;;1.60;;
49177;SDS011;35016;55.674;37.468;2023-05-07T06:17:11;6.78;;;1.60;;
49177;SDS011;35016;55.674;37.468;2023-05-07T06:19:39;4.90;;;1.52;;
49177;SDS011;35016;55.674;37.468;2023-05-07T06:22:07;6.65;;;1.83;;
49177;SDS011;35016;55.674;37.468;2023-05-07T06:24:35;5.15;;;1.55;;
49177;SDS011;35016;55.674;37.468;2023-05-07T06:27:04;4.57;;;1.48;;
49177;SDS011;35016;55.674;37.468;2023-05-07T06:29:32;4.82;;;1.55;;
49177;SDS011;35016;55.674;37.468;2023-05-07T06:32:19;3.28;;;1.15;;
49177;SDS011;35016;55.674;37.468;2023-05-07T06:34:46;4.40;;;1.30;;
49177;SDS011;35016;55.674;37.468;2023-05-07T06:37:14;3.75;;;1.40;;
49177;SDS011;35016;55.674;37.468;2023-05-07T06:39:52;6.55;;;2.03;;
49177;SDS011;35016;55.674;37.468;2023-05-07T06:42:19;4.35;;;1.10;;
49177;SDS011;35016;55.674;37.468;2023-05-07T06:44:48;5.63;;;1.70;;
49177;SDS011;35016;55.674;37.468;2023-05-07T06:47:17;4.78;;;1.63;;
49177;SDS011;35016;55.674;37.468;2023-05-07T06:49:48;4.97;;;1.52;;
49177;SDS011;35016;55.674;37.468;2023-05-07T06:52:20;3.72;;;1.48;;
49177;SDS011;35016;55.674;37.468;2023-05-07T06:54:49;5.22;;;1.30;;
49177;SDS011;35016;55.674;37.468;2023-05-07T06:57:19;4.43;;;1.13;;
49177;SDS011;35016;55.674;37.468;2023-05-07T06:59:46;3.58;;;1.20;;
49177;SDS011;35016;55.674;37.468;2023-05-07T07:02:14;5.13;;;1.60;;
49177;SDS011;35016;55.674;37.468;2023-05-07T07:04:45;4.03;;;1.70;;
49177;SDS011;35016;55.674;37.468;2023-05-07T07:07:13;3.67;;;1.20;;
49177;SDS011;35016;55.674;37.468;2023-05-07T07:09:42;3.28;;;0.95;;
49177;SDS011;35016;55.674;37.468;2023-05-07T07:12:10;5.30;;;1.58;;
49177;SDS011;35016;55.674;37.468;2023-05-07T07:14:39;4.63;;;1.17;;
49177;SDS011;35016;55.674;37.468;2023-05-07T07:17:06;3.70;;;1.23;;
49177;SDS011;35016;55.674;37.468;2023-05-07T07:19:33;6.30;;;2.08;;
49177;SDS011;35016;55.674;37.468;2023-05-07T07:22:02;2.67;;;1.00;;
49177;SDS011;35016;55.674;37.468;2023-05-07T07:24:30;3.88;;;1.33;;
49177;SDS011;35016;55.674;37.468;2023-05-07T07:27:00;4.90;;;1.30;;
49177;SDS011;35016;55.674;37.468;2023-05-07T07:29:28;4.85;;;1.42;;
49177;SDS011;35016;55.674;37.468;2023-05-07T07:31:56;4.90;;;1.30;;
49177;SDS011;35016;55.674;37.468;2023-05-07T07:34:23;3.78;;;1.23;;
49177;SDS011;35016;55.674;37.468;2023-05-07T07:36:50;4.60;;;1.38;;
49177;SDS011;35016;55.674;37.468;2023-05-07T07:39:18;5.07;;;1.70;;
49177;SDS011;35016;55.674;37.468;2023-05-07T07:41:49;5.65;;;1.55;;
49177;SDS011;35016;55.674;37.468;2023-05-07T07:44:17;6.43;;;1.55;;
49177;SDS011;35016;55.674;37.468;2023-05-07T07:46:49;4.20;;;1.95;;
49177;SDS011;35016;55.674;37.468;2023-05-07T07:49:19;4.75;;;1.67;;
49177;SDS011;35016;55.674;37.468;2023-05-07T07:51:46;3.65;;;1.23;;
49177;SDS011;35016;55.674;37.468;2023-05-07T07:54:15;4.35;;;1.45;;
49177;SDS011;35016;55.674;37.468;2023-05-07T07:56:42;5.93;;;1.75;;
49177;SDS011;35016;55.674;37.468;2023-05-07T07:59:10;4.20;;;1.63;;
49177;SDS011;35016;55.674;37.468;2023-05-07T08:01:39;6.40;;;1.77;;
49177;SDS011;35016;55.674;37.468;2023-05-07T08:04:07;4.88;;;1.45;;
49177;SDS011;35016;55.674;37.468;2023-05-07T08:06:38;4.07;;;1.15;;
49177;SDS011;35016;55.674;37.468;2023-05-07T08:09:07;4.35;;;1.17;;
49177;SDS011;35016;55.674;37.468;2023-05-07T08:11:35;5.47;;;1.55;;
49177;SDS011;35016;55.674;37.468;2023-05-07T08:14:05;3.25;;;1.00;;
49177;SDS011;35016;55.674;37.468;2023-05-07T08:16:32;4.03;;;1.58;;
49177;SDS011;35016;55.674;37.468;2023-05-07T08:19:00;4.63;;;1.40;;
49177;SDS011;35016;55.674;37.468;2023-05-07T08:21:28;4.35;;;1.70;;
49177;SDS011;35016;55.674;37.468;2023-05-07T08:23:56;4.50;;;1.48;;
49177;SDS011;35016;55.674;37.468;2023-05-07T08:26:24;2.38;;;1.00;;
49177;SDS011;35016;55.674;37.468;2023-05-07T08:28:51;4.65;;;1.40;;
49177;SDS011;35016;55.674;37.468;2023-05-07T08:31:18;5.78;;;1.50;;
49177;SDS011;35016;55.674;37.468;2023-05-07T08:33:46;3.42;;;1.05;;
49177;SDS011;35016;55.674;37.468;2023-05-07T08:36:13;3.72;;;1.40;;
49177;SDS011;35016;55.674;37.468;2023-05-07T08:38:40;3.30;;;1.23;;
49177;SDS011;35016;55.674;37.468;2023-05-07T08:41:10;3.17;;;1.02;;
49177;SDS011;35016;55.674;37.468;2023-05-07T08:43:40;3.85;;;1.42;;
49177;SDS011;35016;55.674;37.468;2023-05-07T08:46:09;5.63;;;0.93;;
49177;SDS011;35016;55.674;37.468;2023-05-07T08:48:42;3.58;;;1.13;;
49177;SDS011;35016;55.674;37.468;2023-05-07T08:51:13;3.67;;;1.15;;
49177;SDS011;35016;55.674;37.468;2023-05-07T08:53:43;5.05;;;1.63;;
49177;SDS011;35016;55.674;37.468;2023-05-07T08:56:16;6.70;;;1.55;;
49177;SDS011;35016;55.674;37.468;2023-05-07T08:58:47;5.32;;;1.20;;
49177;SDS011;35016;55.674;37.468;2023-05-07T09:01:15;4.97;;;1.52;;
49177;SDS011;35016;55.674;37.468;2023-05-07T09:03:47;3.35;;;1.10;;
49177;SDS011;35016;55.674;37.468;2023-05-07T09:06:15;3.42;;;1.33;;
49177;SDS011;35016;55.674;37.468;2023-05-07T09:08:53;5.63;;;1.50;;
49177;SDS011;35016;55.674;37.468;2023-05-07T09:11:24;6.63;;;2.35;;
49177;SDS011;35016;55.674;37.468;2023-05-07T09:13:55;4.25;;;1.40;;
49177;SDS011;35016;55.674;37.468;2023-05-07T09:16:24;4.40;;;1.35;;
49177;SDS011;35016;55.674;37.468;2023-05-07T09:18:54;5.47;;;1.52;;
49177;SDS011;35016;55.674;37.468;2023-05-07T09:21:22;4.07;;;1.20;;
49177;SDS011;35016;55.674;37.468;2023-05-07T09:23:53;5.55;;;2.15;;
49177;SDS011;35016;55.674;37.468;2023-05-07T09:26:28;5.10;;;1.50;;
49177;SDS011;35016;55.674;37.468;2023-05-07T09:28:56;5.80;;;1.38;;
49177;SDS011;35016;55.674;37.468;2023-05-07T09:31:23;5.28;;;1.70;;
49177;SDS011;35016;55.674;37.468;2023-05-07T09:33:53;5.18;;;1.30;;
49177;SDS011;35016;55.674;37.468;2023-05-07T09:36:24;3.85;;;1.33;;
49177;SDS011;35016;55.674;37.468;2023-05-07T09:38:53;3.92;;;1.08;;
49177;SDS011;35016;55.674;37.468;2023-05-07T09:41:20;4.47;;;1.15;;
49177;SDS011;35016;55.674;37.468;2023-05-07T09:44:10;3.25;;;1.05;;
49177;SDS011;35016;55.674;37.468;2023-05-07T09:46:43;4.32;;;1.38;;
49177;SDS011;35016;55.674;37.468;2023-05-07T09:49:22;5.47;;;1.45;;
49177;SDS011;35016;55.674;37.468;2023-05-07T09:51:59;3.45;;;1.13;;
49177;SDS011;35016;55.674;37.468;2023-05-07T09:54:29;4.63;;;1.63;;
49177;SDS011;35016;55.674;37.468;2023-05-07T09:57:01;3.17;;;1.00;;
49177;SDS011;35016;55.674;37.468;2023-05-07T09:59:31;5.68;;;1.33;;
49177;SDS011;35016;55.674;37.468;2023-05-07T10:02:02;4.88;;;1.45;;
49177;SDS011;35016;55.674;37.468;2023-05-07T10:04:35;2.92;;;1.02;;
49177;SDS011;35016;55.674;37.468;2023-05-07T10:07:03;3.47;;;1.23;;
49177;SDS011;35016;55.674;37.468;2023-05-07T10:09:32;2.22;;;0.80;;
49177;SDS011;35016;55.674;37.468;2023-05-07T10:12:00;5.28;;;1.75;;
49177;SDS011;35016;55.674;37.468;2023-05-07T10:14:28;3.08;;;1.13;;
49177;SDS011;35016;55.674;37.468;2023-05-07T10:16:56;3.22;;;1.20;;
49177;SDS011;35016;55.674;37.468;2023-05-07T10:19:24;2.95;;;0.90;;
49177;SDS011;35016;55.674;37.468;2023-05-07T10:21:56;4.05;;;1.40;;
49177;SDS011;35016;55.674;37.468;2023-05-07T10:24:31;6.50;;;1.98;;
49177;SDS011;35016;55.674;37.468;2023-05-07T10:27:08;5.32;;;1.85;;
49177;SDS011;35016;55.674;37.468;2023-05-07T10:32:47;4.93;;;1.55;;
49177;SDS011;35016;55.674;37.468;2023-05-07T10:35:24;5.13;;;1.08;;
49177;SDS011;35016;55.674;37.468;2023-05-07T10:37:57;4.57;;;1.30;;
49177;SDS011;35016;55.674;37.468;2023-05-07T10:40:27;4.25;;;1.27;;
49177;SDS011;35016;55.674;37.468;2023-05-07T10:42:55;5.38;;;1.63;;
49177;SDS011;35016;55.674;37.468;2023-05-07T10:45:26;4.55;;;1.60;;
49177;SDS011;35016;55.674;37.468;2023-05-07T10:48:06;2.88;;;1.00;;
49177;SDS011;35016;55.674;37.468;2023-05-07T10:51:20;2.55;;;1.05;;
49177;SDS011;35016;55.674;37.468;2023-05-07T10:56:40;2.45;;;1.08;;
49177;SDS011;35016;55.674;37.468;2023-05-07T11:01:54;5.82;;;1.17;;
49177;SDS011;35016;55.674;37.468;2023-05-07T11:04:37;5.80;;;1.98;;
49177;SDS011;35016;55.674;37.468;2023-05-07T11:07:29;3.08;;;1.30;;
49177;SDS011;35016;55.674;37.468;2023-05-07T11:10:08;4.18;;;1.15;;
49177;SDS011;35016;55.674;37.468;2023-05-07T11:12:51;6.95;;;1.77;;
49177;SDS011;35016;55.674;37.468;2023-05-07T11:18:16;1.63;;;0.60;;
49177;SDS011;35016;55.674;37.468;2023-05-07T11:20:46;5.65;;;1.38;;
49177;SDS011;35016;55.674;37.468;2023-05-07T11:26:12;3.42;;;1.23;;
49177;SDS011;35016;55.674;37.468;2023-05-07T11:28:41;4.30;;;1.58;;
49177;SDS011;35016;55.674;37.468;2023-05-07T11:31:29;3.33;;;1.20;;
49177;SDS011;35016;55.674;37.468;2023-05-07T11:33:59;4.97;;;1.23;;
49177;SDS011;35016;55.674;37.468;2023-05-07T11:36:31;4.13;;;1.38;;
49177;SDS011;35016;55.674;37.468;2023-05-07T11:39:01;7.40;;;2.00;;
49177;SDS011;35016;55.674;37.468;2023-05-07T11:41:35;3.20;;;1.10;;
49177;SDS011;35016;55.674;37.468;2023-05-07T11:44:03;10.30;;;1.55;;
49177;SDS011;35016;55.674;37.468;2023-05-07T11:46:30;3.60;;;1.40;;
49177;SDS011;35016;55.674;37.468;2023-05-07T11:49:00;4.38;;;1.20;;
49177;SDS011;35016;55.674;37.468;2023-05-07T11:51:27;5.35;;;1.80;;
49177;SDS011;35016;55.674;37.468;2023-05-07T11:53:54;5.90;;;1.80;;
49177;SDS011;35016;55.674;37.468;2023-05-07T11:56:22;5.47;;;1.75;;
49177;SDS011;35016;55.674;37.468;2023-05-07T11:58:49;5.00;;;1.60;;
49177;SDS011;35016;55.674;37.468;2023-05-07T12:01:18;3.22;;;1.30;;
49177;SDS011;35016;55.674;37.468;2023-05-07T12:03:46;5.72;;;1.50;;
49177;SDS011;35016;55.674;37.468;2023-05-07T12:06:16;4.85;;;1.38;;
49177;SDS011;35016;55.674;37.468;2023-05-07T12:08:44;5.90;;;1.83;;
49177;SDS011;35016;55.674;37.468;2023-05-07T12:11:15;5.40;;;1.50;;
49177;SDS011;35016;55.674;37.468;2023-05-07T12:13:48;5.45;;;1.65;;
49177;SDS011;35016;55.674;37.468;2023-05-07T12:16:19;5.15;;;1.60;;
49177;SDS011;35016;55.674;37.468;2023-05-07T12:18:47;8.25;;;1.60;;
49177;SDS011;35016;55.674;37.468;2023-05-07T12:21:15;5.88;;;1.88;;
49177;SDS011;35016;55.674;37.468;2023-05-07T12:23:43;4.88;;;1.30;;
49177;SDS011;35016;55.674;37.468;2023-05-07T12:26:11;3.33;;;1.33;;
49177;SDS011;35016;55.674;37.468;2023-05-07T12:28:39;5.45;;;1.45;;
49177;SDS011;35016;55.674;37.468;2023-05-07T12:31:06;4.82;;;1.35;;
49177;SDS011;35016;55.674;37.468;2023-05-07T12:33:34;4.40;;;1.50;;
49177;SDS011;35016;55.674;37.468;2023-05-07T12:36:03;5.60;;;1.65;;
49177;SDS011;35016;55.674;37.468;2023-05-07T12:38:39;5.38;;;1.70;;
49177;SDS011;35016;55.674;37.468;2023-05-07T12:41:10;2.30;;;0.93;;
49177;SDS011;35016;55.674;37.468;2023-05-07T12:43:39;6.95;;;1.38;;
49177;SDS011;35016;55.674;37.468;2023-05-07T12:46:07;5.82;;;1.85;;
49177;SDS011;35016;55.674;37.468;2023-05-07T12:48:38;5.68;;;1.70;;
49177;SDS011;35016;55.674;37.468;2023-05-07T12:51:09;5.80;;;1.80;;
49177;SDS011;35016;55.674;37.468;2023-05-07T12:53:39;3.38;;;1.45;;
49177;SDS011;35016;55.674;37.468;2023-05-07T12:56:09;6.47;;;1.70;;
49177;SDS011;35016;55.674;37.468;2023-05-07T12:58:36;5.88;;;1.50;;
49177;SDS011;35016;55.674;37.468;2023-05-07T13:01:04;4.55;;;1.40;;
49177;SDS011;35016;55.674;37.468;2023-05-07T13:03:34;5.40;;;1.63;;
49177;SDS011;35016;55.674;37.468;2023-05-07T13:06:04;6.05;;;1.85;;
49177;SDS011;35016;55.674;37.468;2023-05-07T13:08:34;6.07;;;2.05;;
49177;SDS011;35016;55.674;37.468;2023-05-07T13:11:12;3.65;;;1.33;;
49177;SDS011;35016;55.674;37.468;2023-05-07T13:13:40;5.05;;;1.67;;
49177;SDS011;35016;55.674;37.468;2023-05-07T13:16:09;3.75;;;1.33;;
49177;SDS011;35016;55.674;37.468;2023-05-07T13:18:38;3.72;;;1.10;;
49177;SDS011;35016;55.674;37.468;2023-05-07T13:21:07;4.30;;;1.35;;
49177;SDS011;35016;55.674;37.468;2023-05-07T13:23:34;4.18;;;1.45;;
49177;SDS011;35016;55.674;37.468;2023-05-07T13:26:01;4.68;;;1.63;;
49177;SDS011;35016;55.674;37.468;2023-05-07T13:28:37;6.05;;;1.58;;
49177;SDS011;35016;55.674;37.468;2023-05-07T13:31:04;3.15;;;1.10;;
49177;SDS011;35016;55.674;37.468;2023-05-07T13:33:31;4.95;;;1.50;;
49177;SDS011;35016;55.674;37.468;2023-05-07T13:35:58;6.40;;;1.58;;
49177;SDS011;35016;55.674;37.468;2023-05-07T13:38:27;5.53;;;1.55;;
49177;SDS011;35016;55.674;37.468;2023-05-07T13:40:54;6.57;;;1.63;;
49177;SDS011;35016;55.674;37.468;2023-05-07T13:43:21;11.18;;;3.88;;
49177;SDS011;35016;55.674;37.468;2023-05-07T13:45:49;8.55;;;2.67;;
49177;SDS011;35016;55.674;37.468;2023-05-07T13:48:16;6.32;;;1.98;;
49177;SDS011;35016;55.674;37.468;2023-05-07T13:50:43;9.65;;;4.53;;
49177;SDS011;35016;55.674;37.468;2023-05-07T13:53:10;48.22;;;38.70;;
49177;SDS011;35016;55.674;37.468;2023-05-07T13:55:37;62.28;;;55.63;;
49177;SDS011;35016;55.674;37.468;2023-05-07T13:58:04;109.60;;;98.82;;
49177;SDS011;35016;55.674;37.468;2023-05-07T14:00:33;44.05;;;39.72;;
49177;SDS011;35016;55.674;37.468;2023-05-07T14:03:00;17.85;;;11.60;;
49177;SDS011;35016;55.674;37.468;2023-05-07T14:05:27;24.42;;;19.45;;
49177;SDS011;35016;55.674;37.468;2023-05-07T14:07:55;26.25;;;22.33;;
49177;SDS011;35016;55.674;37.468;2023-05-07T14:10:24;21.52;;;14.82;;
49177;SDS011;35016;55.674;37.468;2023-05-07T14:12:51;13.25;;;6.70;;
49177;SDS011;35016;55.674;37.468;2023-05-07T14:15:19;7.80;;;3.63;;
49177;SDS011;35016;55.674;37.468;2023-05-07T14:17:46;8.25;;;3.20;;
49177;SDS011;35016;55.674;37.468;2023-05-07T14:20:13;7.93;;;2.45;;
49177;SDS011;35016;55.674;37.468;2023-05-07T14:22:41;7.53;;;2.50;;
49177;SDS011;35016;55.674;37.468;2023-05-07T14:25:08;6.22;;;1.83;;
49177;SDS011;35016;55.674;37.468;2023-05-07T14:27:41;8.30;;;3.05;;
49177;SDS011;35016;55.674;37.468;2023-05-07T14:30:08;10.25;;;5.50;;
49177;SDS011;35016;55.674;37.468;2023-05-07T14:32:36;8.02;;;3.00;;
49177;SDS011;35016;55.674;37.468;2023-05-07T14:35:03;9.88;;;3.85;;
49177;SDS011;35016;55.674;37.468;2023-05-07T14:37:32;8.73;;;3.53;;
49177;SDS011;35016;55.674;37.468;2023-05-07T14:39:59;5.43;;;1.65;;
49177;SDS011;35016;55.674;37.468;2023-05-07T14:42:27;4.75;;;1.58;;
49177;SDS011;35016;55.674;37.468;2023-05-07T14:44:54;5.30;;;1.80;;
49177;SDS011;35016;55.674;37.468;2023-05-07T14:47:21;6.50;;;2.42;;
49177;SDS011;35016;55.674;37.468;2023-05-07T14:49:48;5.25;;;1.58;;
49177;SDS011;35016;55.674;37.468;2023-05-07T14:52:16;5.32;;;1.52;;
49177;SDS011;35016;55.674;37.468;2023-05-07T14:54:43;5.85;;;1.70;;
49177;SDS011;35016;55.674;37.468;2023-05-07T14:57:10;4.40;;;1.40;;
49177;SDS011;35016;55.674;37.468;2023-05-07T14:59:40;6.70;;;2.13;;
49177;SDS011;35016;55.674;37.468;2023-05-07T15:02:08;9.40;;;1.70;;
49177;SDS011;35016;55.674;37.468;2023-05-07T15:04:37;4.35;;;1.35;;